Republica Dominicana

TAF

                                                                             

 

 

                                                                                                                SANTO DOMINGO 17 DE JUNIO  DEL 2019

                                                                                                                    AEROP. INT. LAS AMERICAS JFPG- 

 

FTDR31 MDSD 17040Z
TAF 

TAF MDPP 170400Z 1706/1806 00000KT 9999 FEW016=

TAF MDST 170400Z 1706/1806 130102KT 9999 SCT018 TEMPO 1710/1712 1000 BR OVC010 PROB30 1720/1723 8000 -TSRA FEW018CB SCT020 BKN070=

TAF MDPC 170400Z 1706/1806 09010KT 9999   FEW016CB SCT018 PROB30 1706/1712  8000-TSRA  FEW016CB SCT018 SCT070=

TAF MDBH 170400Z 1706/1806 13010KT 9999 FEW016CB SCT017 SCT080 PROB40 1707/1712 7000 -TSRA FEW014CB BKN016 BKN070 BECMG 1710/1712 27006KT=

TAF MDJB 170400Z 1706/1806 00000KT 9999 SCT017 SCT300 BECMG 1714/1716 18010KT TEMPO 1718/1722 6000 –TSRA FEW014CB BKN016 SCT070=

TAF MDSD 170400Z 1706/1806 03008KT 9999 SCT017 PROB30 1708/1714 8000 -TSRA FEW015CB BKN015=

TAF MDLR 170400Z 1706/1806 00000KT 9999 SCT018 PROB30 1706/1712 8000 –SH BKN016 SCT070 BECMG 1714/1716 12012KT= 

TAF MDCY 170400Z 1706/1806 00000KT 9999 SCT016 SCT070 PROB30 1706/1712 8000 -TSRA FEW014CB SCT015 SCT070 BECMG 1710/1712 28010KT= 

MDPP AEROPUERTO INTERNACIONAL LA UNION PUERTO PLATA

MDST AEROPUERTO INTERNACIONAL DE SANTIAGO

MDPC AEROPUERTO INTERNACIONAL PUNTA CANA

MDBH AEROPUERTO INTERNACIONAL DE BARAHONA

MDJB AEROPUERTO INTERNACIONAL JOAQUIN BALAGUER

MDSD AEROPUERTO INTERNACIONAL LAS AMERICAS

MDLR AEROPUERTO INTERNACIONAL LA ROMANA

MDCY AEROPUERTO INTERNACIONAL DE CATEY

 

MDSD//HATY MOTA

MDPP//J.URBAEZ

MDST//J.SALADO

MDPC//A.PERALTA

MDBH//GOMEZ

MDJB//COLON

MDLR/A.ESPINOSA

MDCY//A.CORCINO

 




Tamaño letra

Contraste

Otros